sensor_id;sensor_type;location;lat;lon;timestamp;pressure;altitude;pressure_sealevel;temperature;humidity
56928;BME280;60850;52.502;13.426;2023-03-11T00:00:29;98448.44;;;2.24;100.00
56928;BME280;60850;52.502;13.426;2023-03-11T00:03:19;98452.66;;;2.29;100.00
56928;BME280;60850;52.502;13.426;2023-03-11T00:05:49;98470.97;;;2.32;100.00
56928;BME280;60850;52.502;13.426;2023-03-11T00:08:19;98482.16;;;2.39;100.00
56928;BME280;60850;52.502;13.426;2023-03-11T00:10:47;98498.59;;;2.47;100.00
56928;BME280;60850;52.502;13.426;2023-03-11T00:13:17;98502.84;;;2.51;100.00
56928;BME280;60850;52.502;13.426;2023-03-11T00:15:45;98520.22;;;2.57;100.00
56928;BME280;60850;52.502;13.426;2023-03-11T00:18:13;98524.44;;;2.62;100.00
56928;BME280;60850;52.502;13.426;2023-03-11T00:20:43;98525.16;;;2.67;100.00
56928;BME280;60850;52.502;13.426;2023-03-11T00:23:12;98524.38;;;2.64;100.00
56928;BME280;60850;52.502;13.426;2023-03-11T00:25:39;98536.56;;;2.66;100.00
56928;BME280;60850;52.502;13.426;2023-03-11T00:28:09;98543.72;;;2.63;100.00
56928;BME280;60850;52.502;13.426;2023-03-11T00:30:36;98549.84;;;2.63;100.00
56928;BME280;60850;52.502;13.426;2023-03-11T00:33:07;98558.69;;;2.61;100.00
56928;BME280;60850;52.502;13.426;2023-03-11T00:35:35;98556.00;;;2.62;100.00
56928;BME280;60850;52.502;13.426;2023-03-11T00:38:06;98569.09;;;2.64;100.00
56928;BME280;60850;52.502;13.426;2023-03-11T00:40:34;98565.84;;;2.56;100.00
56928;BME280;60850;52.502;13.426;2023-03-11T00:43:03;98571.97;;;2.56;100.00
56928;BME280;60850;52.502;13.426;2023-03-11T00:45:30;98580.72;;;2.57;100.00
56928;BME280;60850;52.502;13.426;2023-03-11T00:47:58;98567.69;;;2.52;100.00
56928;BME280;60850;52.502;13.426;2023-03-11T00:50:28;98572.88;;;2.55;100.00
56928;BME280;60850;52.502;13.426;2023-03-11T00:52:56;98589.63;;;2.51;100.00
56928;BME280;60850;52.502;13.426;2023-03-11T00:55:26;98592.59;;;2.40;100.00
56928;BME280;60850;52.502;13.426;2023-03-11T00:57:56;98591.91;;;2.34;100.00
56928;BME280;60850;52.502;13.426;2023-03-11T01:00:25;98599.84;;;2.31;100.00
56928;BME280;60850;52.502;13.426;2023-03-11T01:02:54;98614.22;;;2.17;100.00
56928;BME280;60850;52.502;13.426;2023-03-11T01:05:22;98623.97;;;2.14;100.00
56928;BME280;60850;52.502;13.426;2023-03-11T01:07:50;98626.50;;;2.18;100.00
56928;BME280;60850;52.502;13.426;2023-03-11T01:10:17;98634.19;;;2.25;100.00
56928;BME280;60850;52.502;13.426;2023-03-11T01:12:45;98636.75;;;2.28;100.00
56928;BME280;60850;52.502;13.426;2023-03-11T01:15:17;98641.31;;;2.21;100.00
56928;BME280;60850;52.502;13.426;2023-03-11T01:17:44;98650.22;;;2.15;100.00
56928;BME280;60850;52.502;13.426;2023-03-11T01:20:12;98663.59;;;2.06;100.00
56928;BME280;60850;52.502;13.426;2023-03-11T01:22:39;98666.44;;;1.99;100.00
56928;BME280;60850;52.502;13.426;2023-03-11T01:25:06;98674.31;;;1.97;100.00
56928;BME280;60850;52.502;13.426;2023-03-11T01:27:35;98693.56;;;1.99;100.00
56928;BME280;60850;52.502;13.426;2023-03-11T01:30:03;98695.34;;;1.97;100.00
56928;BME280;60850;52.502;13.426;2023-03-11T01:32:30;98713.97;;;1.88;100.00
56928;BME280;60850;52.502;13.426;2023-03-11T01:34:57;98703.47;;;1.88;100.00
56928;BME280;60850;52.502;13.426;2023-03-11T01:37:24;98725.25;;;1.93;100.00
56928;BME280;60850;52.502;13.426;2023-03-11T01:39:51;98721.63;;;1.99;100.00
56928;BME280;60850;52.502;13.426;2023-03-11T01:42:18;98734.00;;;1.93;100.00
56928;BME280;60850;52.502;13.426;2023-03-11T01:44:45;98735.66;;;1.96;100.00
56928;BME280;60850;52.502;13.426;2023-03-11T01:47:35;98741.00;;;1.93;100.00
56928;BME280;60850;52.502;13.426;2023-03-11T01:50:04;98755.81;;;1.96;100.00
56928;BME280;60850;52.502;13.426;2023-03-11T01:52:32;98754.00;;;1.99;100.00
56928;BME280;60850;52.502;13.426;2023-03-11T01:54:59;98776.13;;;1.89;100.00
56928;BME280;60850;52.502;13.426;2023-03-11T01:57:26;98773.47;;;1.90;100.00
56928;BME280;60850;52.502;13.426;2023-03-11T01:59:55;98791.94;;;1.87;100.00
56928;BME280;60850;52.502;13.426;2023-03-11T02:02:27;98784.94;;;1.86;100.00
56928;BME280;60850;52.502;13.426;2023-03-11T02:04:58;98796.59;;;1.76;100.00
56928;BME280;60850;52.502;13.426;2023-03-11T02:07:27;98802.56;;;1.81;100.00
56928;BME280;60850;52.502;13.426;2023-03-11T02:09:53;98820.22;;;1.76;100.00
56928;BME280;60850;52.502;13.426;2023-03-11T02:12:21;98828.69;;;1.89;100.00
56928;BME280;60850;52.502;13.426;2023-03-11T02:14:50;98838.31;;;1.88;100.00
56928;BME280;60850;52.502;13.426;2023-03-11T02:17:19;98829.66;;;1.85;100.00
56928;BME280;60850;52.502;13.426;2023-03-11T02:20:07;98850.56;;;1.89;100.00
56928;BME280;60850;52.502;13.426;2023-03-11T02:22:39;98855.81;;;1.89;100.00
56928;BME280;60850;52.502;13.426;2023-03-11T02:25:10;98881.31;;;1.86;100.00
56928;BME280;60850;52.502;13.426;2023-03-11T02:27:42;98888.31;;;1.85;100.00
56928;BME280;60850;52.502;13.426;2023-03-11T02:30:13;98892.72;;;1.85;100.00
56928;BME280;60850;52.502;13.426;2023-03-11T02:32:41;98902.25;;;1.89;100.00
56928;BME280;60850;52.502;13.426;2023-03-11T02:35:11;98916.31;;;1.86;100.00
56928;BME280;60850;52.502;13.426;2023-03-11T02:37:43;98928.69;;;1.81;100.00
56928;BME280;60850;52.502;13.426;2023-03-11T02:43:17;98948.69;;;1.88;100.00
56928;BME280;60850;52.502;13.426;2023-03-11T02:45:46;98948.31;;;1.63;100.00
56928;BME280;60850;52.502;13.426;2023-03-11T02:48:15;98963.22;;;1.63;100.00
56928;BME280;60850;52.502;13.426;2023-03-11T02:50:43;98977.13;;;1.67;100.00
56928;BME280;60850;52.502;13.426;2023-03-11T02:53:12;98994.72;;;1.63;100.00
56928;BME280;60850;52.502;13.426;2023-03-11T02:55:39;98986.88;;;1.60;100.00
56928;BME280;60850;52.502;13.426;2023-03-11T02:58:07;98997.44;;;1.58;100.00
56928;BME280;60850;52.502;13.426;2023-03-11T03:00:35;99013.97;;;1.62;100.00
56928;BME280;60850;52.502;13.426;2023-03-11T03:03:03;99002.97;;;1.43;100.00
56928;BME280;60850;52.502;13.426;2023-03-11T03:05:30;99022.03;;;1.53;100.00
56928;BME280;60850;52.502;13.426;2023-03-11T03:07:58;99025.53;;;1.53;100.00
56928;BME280;60850;52.502;13.426;2023-03-11T03:10:27;99047.13;;;1.69;100.00
56928;BME280;60850;52.502;13.426;2023-03-11T03:12:54;99040.09;;;1.71;100.00
56928;BME280;60850;52.502;13.426;2023-03-11T03:15:22;99065.41;;;1.75;100.00
56928;BME280;60850;52.502;13.426;2023-03-11T03:17:50;99077.56;;;1.81;100.00
56928;BME280;60850;52.502;13.426;2023-03-11T03:20:17;99068.66;;;1.89;100.00
56928;BME280;60850;52.502;13.426;2023-03-11T03:22:47;99099.41;;;1.84;100.00
56928;BME280;60850;52.502;13.426;2023-03-11T03:25:15;99102.91;;;1.85;100.00
56928;BME280;60850;52.502;13.426;2023-03-11T03:27:42;99115.19;;;1.84;100.00
56928;BME280;60850;52.502;13.426;2023-03-11T03:30:10;99132.66;;;1.87;100.00
56928;BME280;60850;52.502;13.426;2023-03-11T03:32:37;99130.09;;;1.84;100.00
56928;BME280;60850;52.502;13.426;2023-03-11T03:35:07;99144.81;;;1.92;100.00
56928;BME280;60850;52.502;13.426;2023-03-11T03:37:35;99157.09;;;1.92;100.00
56928;BME280;60850;52.502;13.426;2023-03-11T03:40:04;99164.00;;;1.96;100.00
56928;BME280;60850;52.502;13.426;2023-03-11T03:42:33;99178.00;;;1.98;100.00
56928;BME280;60850;52.502;13.426;2023-03-11T03:45:00;99192.88;;;1.99;100.00
56928;BME280;60850;52.502;13.426;2023-03-11T03:47:27;99197.22;;;2.02;100.00
56928;BME280;60850;52.502;13.426;2023-03-11T03:49:54;99205.97;;;2.02;100.00
56928;BME280;60850;52.502;13.426;2023-03-11T03:52:23;99208.59;;;2.02;100.00
56928;BME280;60850;52.502;13.426;2023-03-11T03:54:50;99220.06;;;1.98;100.00
56928;BME280;60850;52.502;13.426;2023-03-11T03:57:17;99224.34;;;2.02;100.00
56928;BME280;60850;52.502;13.426;2023-03-11T03:59:43;99230.38;;;2.09;100.00
56928;BME280;60850;52.502;13.426;2023-03-11T04:02:10;99244.38;;;2.11;100.00
56928;BME280;60850;52.502;13.426;2023-03-11T04:04:39;99247.09;;;2.06;100.00
56928;BME280;60850;52.502;13.426;2023-03-11T04:07:06;99258.41;;;2.10;100.00
56928;BME280;60850;52.502;13.426;2023-03-11T04:09:37;99263.59;;;2.14;100.00
56928;BME280;60850;52.502;13.426;2023-03-11T04:12:05;99267.25;;;2.06;100.00
56928;BME280;60850;52.502;13.426;2023-03-11T04:14:32;99267.22;;;2.07;100.00
56928;BME280;60850;52.502;13.426;2023-03-11T04:16:59;99275.00;;;2.13;100.00
56928;BME280;60850;52.502;13.426;2023-03-11T04:19:26;99279.31;;;2.17;100.00
56928;BME280;60850;52.502;13.426;2023-03-11T04:21:53;99297.59;;;2.27;100.00
56928;BME280;60850;52.502;13.426;2023-03-11T04:24:20;99300.28;;;2.22;100.00
56928;BME280;60850;52.502;13.426;2023-03-11T04:26:48;99303.91;;;2.15;100.00
56928;BME280;60850;52.502;13.426;2023-03-11T04:29:15;99306.50;;;2.16;100.00
56928;BME280;60850;52.502;13.426;2023-03-11T04:31:42;99320.53;;;2.15;100.00
56928;BME280;60850;52.502;13.426;2023-03-11T04:34:09;99330.91;;;2.25;100.00
56928;BME280;60850;52.502;13.426;2023-03-11T04:36:36;99332.69;;;2.23;100.00
56928;BME280;60850;52.502;13.426;2023-03-11T04:39:03;99346.72;;;2.23;100.00
56928;BME280;60850;52.502;13.426;2023-03-11T04:41:30;99342.28;;;2.25;100.00
56928;BME280;60850;52.502;13.426;2023-03-11T04:43:59;99347.69;;;2.16;100.00
56928;BME280;60850;52.502;13.426;2023-03-11T04:46:26;99351.16;;;2.18;100.00
56928;BME280;60850;52.502;13.426;2023-03-11T04:48:52;99362.50;;;2.22;100.00
56928;BME280;60850;52.502;13.426;2023-03-11T04:51:19;99373.78;;;2.30;100.00
56928;BME280;60850;52.502;13.426;2023-03-11T04:53:46;99374.75;;;2.26;100.00
56928;BME280;60850;52.502;13.426;2023-03-11T04:56:13;99391.31;;;2.29;100.00
56928;BME280;60850;52.502;13.426;2023-03-11T04:58:40;99392.16;;;2.33;100.00
56928;BME280;60850;52.502;13.426;2023-03-11T05:01:08;99404.41;;;2.34;100.00
56928;BME280;60850;52.502;13.426;2023-03-11T05:03:35;99398.25;;;2.35;100.00
56928;BME280;60850;52.502;13.426;2023-03-11T05:06:03;99404.38;;;2.35;100.00
56928;BME280;60850;52.502;13.426;2023-03-11T05:08:30;99419.28;;;2.35;100.00
56928;BME280;60850;52.502;13.426;2023-03-11T05:10:57;99421.03;;;2.36;100.00
56928;BME280;60850;52.502;13.426;2023-03-11T05:13:24;99425.38;;;2.40;100.00
56928;BME280;60850;52.502;13.426;2023-03-11T05:15:51;99441.16;;;2.40;100.00
56928;BME280;60850;52.502;13.426;2023-03-11T05:18:19;99457.75;;;2.43;100.00
56928;BME280;60850;52.502;13.426;2023-03-11T05:20:46;99459.63;;;2.35;100.00
56928;BME280;60850;52.502;13.426;2023-03-11T05:23:13;99461.41;;;2.32;100.00
56928;BME280;60850;52.502;13.426;2023-03-11T05:25:40;99471.91;;;2.33;100.00
56928;BME280;60850;52.502;13.426;2023-03-11T05:28:06;99478.97;;;2.30;100.00
56928;BME280;60850;52.502;13.426;2023-03-11T05:30:33;99479.91;;;2.26;100.00
56928;BME280;60850;52.502;13.426;2023-03-11T05:33:00;99488.72;;;2.22;100.00
56928;BME280;60850;52.502;13.426;2023-03-11T05:35:29;99494.78;;;2.27;100.00
56928;BME280;60850;52.502;13.426;2023-03-11T05:37:55;99503.56;;;2.27;100.00
56928;BME280;60850;52.502;13.426;2023-03-11T05:40:22;99514.03;;;2.29;100.00
56928;BME280;60850;52.502;13.426;2023-03-11T05:42:49;99521.97;;;2.24;100.00
56928;BME280;60850;52.502;13.426;2023-03-11T05:45:16;99516.72;;;2.26;100.00
56928;BME280;60850;52.502;13.426;2023-03-11T05:47:43;99529.78;;;2.33;100.00
56928;BME280;60850;52.502;13.426;2023-03-11T05:50:11;99530.56;;;2.40;100.00
56928;BME280;60850;52.502;13.426;2023-03-11T05:52:39;99541.97;;;2.40;100.00
56928;BME280;60850;52.502;13.426;2023-03-11T05:55:08;99551.59;;;2.41;100.00
56928;BME280;60850;52.502;13.426;2023-03-11T05:57:36;99551.69;;;2.34;100.00
56928;BME280;60850;52.502;13.426;2023-03-11T06:00:04;99556.88;;;2.40;100.00
56928;BME280;60850;52.502;13.426;2023-03-11T06:02:37;99560.22;;;2.51;100.00
56928;BME280;60850;52.502;13.426;2023-03-11T06:05:05;99565.44;;;2.53;100.00
56928;BME280;60850;52.502;13.426;2023-03-11T06:07:33;99572.47;;;2.55;100.00
56928;BME280;60850;52.502;13.426;2023-03-11T06:10:01;99571.59;;;2.55;100.00
56928;BME280;60850;52.502;13.426;2023-03-11T06:12:28;99582.94;;;2.58;100.00
56928;BME280;60850;52.502;13.426;2023-03-11T06:14:55;99588.19;;;2.58;100.00
56928;BME280;60850;52.502;13.426;2023-03-11T06:17:22;99599.66;;;2.53;100.00
56928;BME280;60850;52.502;13.426;2023-03-11T06:19:49;99606.75;;;2.47;100.00
56928;BME280;60850;52.502;13.426;2023-03-11T06:22:16;99605.91;;;2.44;100.00
56928;BME280;60850;52.502;13.426;2023-03-11T06:24:43;99605.03;;;2.43;100.00
56928;BME280;60850;52.502;13.426;2023-03-11T06:27:11;99607.59;;;2.50;100.00
56928;BME280;60850;52.502;13.426;2023-03-11T06:29:38;99616.38;;;2.48;100.00
56928;BME280;60850;52.502;13.426;2023-03-11T06:32:06;99627.69;;;2.54;100.00
56928;BME280;60850;52.502;13.426;2023-03-11T06:34:33;99625.03;;;2.57;100.00
56928;BME280;60850;52.502;13.426;2023-03-11T06:37:00;99626.75;;;2.59;100.00
56928;BME280;60850;52.502;13.426;2023-03-11T06:39:27;99638.16;;;2.60;100.00
56928;BME280;60850;52.502;13.426;2023-03-11T06:41:54;99638.09;;;2.64;100.00
56928;BME280;60850;52.502;13.426;2023-03-11T06:44:22;99654.75;;;2.66;100.00
56928;BME280;60850;52.502;13.426;2023-03-11T06:46:49;99656.53;;;2.64;100.00
56928;BME280;60850;52.502;13.426;2023-03-11T06:49:16;99673.19;;;2.65;100.00
56928;BME280;60850;52.502;13.426;2023-03-11T06:51:43;99676.66;;;2.67;100.00
56928;BME280;60850;52.502;13.426;2023-03-11T06:54:10;99682.78;;;2.70;100.00
56928;BME280;60850;52.502;13.426;2023-03-11T06:56:37;99675.63;;;2.80;100.00
56928;BME280;60850;52.502;13.426;2023-03-11T06:59:04;99693.97;;;2.88;100.00
56928;BME280;60850;52.502;13.426;2023-03-11T07:01:32;99703.66;;;2.84;100.00
56928;BME280;60850;52.502;13.426;2023-03-11T07:03:59;99709.78;;;2.86;100.00
56928;BME280;60850;52.502;13.426;2023-03-11T07:06:27;99709.69;;;2.92;100.00
56928;BME280;60850;52.502;13.426;2023-03-11T07:08:54;99727.25;;;2.92;100.00
56928;BME280;60850;52.502;13.426;2023-03-11T07:11:23;99717.63;;;2.91;100.00
56928;BME280;60850;52.502;13.426;2023-03-11T07:13:51;99735.97;;;2.95;100.00
56928;BME280;60850;52.502;13.426;2023-03-11T07:16:20;99733.34;;;2.97;100.00
56928;BME280;60850;52.502;13.426;2023-03-11T07:18:50;99731.75;;;2.81;100.00
56928;BME280;60850;52.502;13.426;2023-03-11T07:21:19;99744.00;;;2.85;100.00
56928;BME280;60850;52.502;13.426;2023-03-11T07:23:47;99752.75;;;2.87;100.00
56928;BME280;60850;52.502;13.426;2023-03-11T07:26:17;99763.16;;;2.99;100.00
56928;BME280;60850;52.502;13.426;2023-03-11T07:28:44;99766.72;;;2.96;100.00
56928;BME280;60850;52.502;13.426;2023-03-11T07:31:14;99776.34;;;2.94;100.00
56928;BME280;60850;52.502;13.426;2023-03-11T07:33:42;99783.53;;;2.80;100.00
56928;BME280;60850;52.502;13.426;2023-03-11T07:36:12;99784.34;;;2.90;100.00
56928;BME280;60850;52.502;13.426;2023-03-11T07:38:40;99800.97;;;2.89;100.00
56928;BME280;60850;52.502;13.426;2023-03-11T07:41:07;99806.91;;;3.11;100.00
56928;BME280;60850;52.502;13.426;2023-03-11T07:43:36;99809.78;;;3.63;100.00
56928;BME280;60850;52.502;13.426;2023-03-11T07:46:05;99808.81;;;4.29;100.00
56928;BME280;60850;52.502;13.426;2023-03-11T07:48:32;99812.91;;;4.47;100.00
56928;BME280;60850;52.502;13.426;2023-03-11T07:51:01;99825.28;;;4.43;100.00
56928;BME280;60850;52.502;13.426;2023-03-11T07:53:30;99839.25;;;4.50;100.00
56928;BME280;60850;52.502;13.426;2023-03-11T07:55:57;99835.38;;;4.71;100.00
56928;BME280;60850;52.502;13.426;2023-03-11T07:58:25;99845.88;;;4.75;100.00
56928;BME280;60850;52.502;13.426;2023-03-11T08:00:53;99844.75;;;4.88;100.00
56928;BME280;60850;52.502;13.426;2023-03-11T08:03:22;99854.09;;;5.08;100.00
56928;BME280;60850;52.502;13.426;2023-03-11T08:05:49;99853.94;;;5.17;100.00
56928;BME280;60850;52.502;13.426;2023-03-11T08:08:17;99854.88;;;5.13;100.00
56928;BME280;60850;52.502;13.426;2023-03-11T08:10:45;99865.88;;;5.38;100.00
56928;BME280;60850;52.502;13.426;2023-03-11T08:13:12;99872.25;;;5.26;100.00
56928;BME280;60850;52.502;13.426;2023-03-11T08:15:39;99882.91;;;5.20;100.00
56928;BME280;60850;52.502;13.426;2023-03-11T08:18:06;99882.16;;;5.60;100.00
56928;BME280;60850;52.502;13.426;2023-03-11T08:20:33;99892.22;;;5.84;100.00
56928;BME280;60850;52.502;13.426;2023-03-11T08:23:00;99898.44;;;5.83;100.00
56928;BME280;60850;52.502;13.426;2023-03-11T08:25:27;99901.59;;;5.59;100.00
56928;BME280;60850;52.502;13.426;2023-03-11T08:27:56;99906.56;;;5.74;100.00
56928;BME280;60850;52.502;13.426;2023-03-11T08:30:23;99904.81;;;6.91;100.00
56928;BME280;60850;52.502;13.426;2023-03-11T08:32:51;99918.53;;;10.16;96.51
56928;BME280;60850;52.502;13.426;2023-03-11T08:35:18;99918.19;;;10.70;84.43
56928;BME280;60850;52.502;13.426;2023-03-11T08:37:45;99929.72;;;10.71;77.81
56928;BME280;60850;52.502;13.426;2023-03-11T08:40:12;99926.91;;;10.05;79.52
56928;BME280;60850;52.502;13.426;2023-03-11T08:42:39;99935.31;;;9.95;81.20
56928;BME280;60850;52.502;13.426;2023-03-11T08:45:09;99939.25;;;9.59;83.97
56928;BME280;60850;52.502;13.426;2023-03-11T08:47:37;99949.50;;;10.18;82.88
56928;BME280;60850;52.502;13.426;2023-03-11T08:50:07;99946.78;;;10.89;76.11
56928;BME280;60850;52.502;13.426;2023-03-11T08:52:34;99953.16;;;9.68;79.57
56928;BME280;60850;52.502;13.426;2023-03-11T08:55:01;99970.81;;;9.44;84.21
56928;BME280;60850;52.502;13.426;2023-03-11T08:57:29;99967.44;;;8.26;91.49
56928;BME280;60850;52.502;13.426;2023-03-11T08:59:56;99964.88;;;7.92;96.37
56928;BME280;60850;52.502;13.426;2023-03-11T09:02:25;99982.84;;;8.45;92.18
56928;BME280;60850;52.502;13.426;2023-03-11T09:04:52;99973.34;;;9.48;89.04
56928;BME280;60850;52.502;13.426;2023-03-11T09:07:19;99978.16;;;8.83;90.33
56928;BME280;60850;52.502;13.426;2023-03-11T09:09:46;99978.19;;;8.53;91.64
56928;BME280;60850;52.502;13.426;2023-03-11T09:12:13;99985.50;;;8.45;90.27
56928;BME280;60850;52.502;13.426;2023-03-11T09:14:40;100000.13;;;8.89;91.51
56928;BME280;60850;52.502;13.426;2023-03-11T09:17:07;100002.84;;;8.86;87.48
56928;BME280;60850;52.502;13.426;2023-03-11T09:19:36;100002.13;;;8.20;90.58
56928;BME280;60850;52.502;13.426;2023-03-11T09:22:04;100001.34;;;7.86;94.02
56928;BME280;60850;52.502;13.426;2023-03-11T09:24:32;100008.72;;;8.07;96.17
56928;BME280;60850;52.502;13.426;2023-03-11T09:26:59;100010.75;;;8.60;92.97
56928;BME280;60850;52.502;13.426;2023-03-11T09:29:27;100019.50;;;8.63;93.26
56928;BME280;60850;52.502;13.426;2023-03-11T09:31:54;100012.63;;;8.56;92.63
56928;BME280;60850;52.502;13.426;2023-03-11T09:34:21;100029.56;;;8.52;91.40
56928;BME280;60850;52.502;13.426;2023-03-11T09:36:50;100020.13;;;8.42;94.08
56928;BME280;60850;52.502;13.426;2023-03-11T09:39:16;100031.09;;;8.61;93.78
56928;BME280;60850;52.502;13.426;2023-03-11T09:41:49;100040.13;;;8.55;93.22
56928;BME280;60850;52.502;13.426;2023-03-11T09:44:21;100032.91;;;8.59;95.04
56928;BME280;60850;52.502;13.426;2023-03-11T09:47:02;100034.84;;;8.53;93.93
56928;BME280;60850;52.502;13.426;2023-03-11T09:49:47;100039.91;;;8.32;93.29
56928;BME280;60850;52.502;13.426;2023-03-11T09:52:24;100054.44;;;8.18;94.98
56928;BME280;60850;52.502;13.426;2023-03-11T09:54:55;100054.00;;;8.01;98.67
56928;BME280;60850;52.502;13.426;2023-03-11T09:57:26;100072.06;;;7.53;99.09
56928;BME280;60850;52.502;13.426;2023-03-11T09:59:53;100071.09;;;7.20;100.00
56928;BME280;60850;52.502;13.426;2023-03-11T10:02:23;100074.88;;;7.09;100.00
56928;BME280;60850;52.502;13.426;2023-03-11T10:04:55;100084.44;;;7.52;100.00
56928;BME280;60850;52.502;13.426;2023-03-11T10:07:27;100086.94;;;7.58;100.00
56928;BME280;60850;52.502;13.426;2023-03-11T10:09:59;100087.47;;;7.37;100.00
56928;BME280;60850;52.502;13.426;2023-03-11T10:12:36;100091.59;;;7.50;100.00
56928;BME280;60850;52.502;13.426;2023-03-11T10:15:18;100083.97;;;7.72;100.00
56928;BME280;60850;52.502;13.426;2023-03-11T10:17:58;100085.91;;;7.99;100.00
56928;BME280;60850;52.502;13.426;2023-03-11T10:20:35;100093.69;;;8.06;100.00
56928;BME280;60850;52.502;13.426;2023-03-11T10:23:16;100100.50;;;8.16;100.00
56928;BME280;60850;52.502;13.426;2023-03-11T10:25:53;100102.94;;;8.25;99.69
56928;BME280;60850;52.502;13.426;2023-03-11T10:28:25;100095.78;;;8.27;100.00
56928;BME280;60850;52.502;13.426;2023-03-11T10:30:55;100113.22;;;8.39;100.00
56928;BME280;60850;52.502;13.426;2023-03-11T10:33:26;100112.84;;;8.51;99.14
56928;BME280;60850;52.502;13.426;2023-03-11T10:35:57;100113.28;;;8.34;99.84
56928;BME280;60850;52.502;13.426;2023-03-11T10:38:30;100118.97;;;8.20;97.96
56928;BME280;60850;52.502;13.426;2023-03-11T10:41:03;100130.19;;;8.32;97.68
56928;BME280;60850;52.502;13.426;2023-03-11T10:43:34;100129.22;;;8.36;97.59
56928;BME280;60850;52.502;13.426;2023-03-11T10:46:09;100129.00;;;8.43;96.57
56928;BME280;60850;52.502;13.426;2023-03-11T10:48:40;100124.91;;;8.30;96.32
56928;BME280;60850;52.502;13.426;2023-03-11T10:51:13;100133.63;;;8.01;99.22
56928;BME280;60850;52.502;13.426;2023-03-11T10:53:45;100138.50;;;7.47;99.78
56928;BME280;60850;52.502;13.426;2023-03-11T10:56:25;100147.22;;;7.14;100.00
56928;BME280;60850;52.502;13.426;2023-03-11T10:58:53;100141.91;;;6.73;100.00
56928;BME280;60850;52.502;13.426;2023-03-11T11:01:21;100141.09;;;6.69;100.00
56928;BME280;60850;52.502;13.426;2023-03-11T11:03:49;100155.41;;;7.02;100.00
56928;BME280;60850;52.502;13.426;2023-03-11T11:06:20;100154.38;;;7.09;100.00
56928;BME280;60850;52.502;13.426;2023-03-11T11:09:03;100148.28;;;7.04;100.00
56928;BME280;60850;52.502;13.426;2023-03-11T11:11:31;100155.19;;;7.13;100.00
56928;BME280;60850;52.502;13.426;2023-03-11T11:13:59;100153.59;;;7.06;100.00
56928;BME280;60850;52.502;13.426;2023-03-11T11:16:26;100153.88;;;6.91;100.00
56928;BME280;60850;52.502;13.426;2023-03-11T11:18:57;100160.00;;;6.94;100.00
56928;BME280;60850;52.502;13.426;2023-03-11T11:21:30;100162.13;;;7.20;100.00
56928;BME280;60850;52.502;13.426;2023-03-11T11:24:09;100170.31;;;7.47;100.00
56928;BME280;60850;52.502;13.426;2023-03-11T11:26:39;100162.78;;;7.67;100.00
56928;BME280;60850;52.502;13.426;2023-03-11T11:29:12;100166.59;;;7.92;99.12
56928;BME280;60850;52.502;13.426;2023-03-11T11:31:40;100179.22;;;8.17;99.48
56928;BME280;60850;52.502;13.426;2023-03-11T11:34:29;100175.03;;;8.08;94.00
56928;BME280;60850;52.502;13.426;2023-03-11T11:36:57;100175.50;;;7.90;93.35
56928;BME280;60850;52.502;13.426;2023-03-11T11:39:29;100183.53;;;7.87;94.43
56928;BME280;60850;52.502;13.426;2023-03-11T11:41:59;100179.13;;;7.86;93.83
56928;BME280;60850;52.502;13.426;2023-03-11T11:44:31;100175.91;;;7.73;96.15
56928;BME280;60850;52.502;13.426;2023-03-11T11:47:03;100182.59;;;7.52;96.30
56928;BME280;60850;52.502;13.426;2023-03-11T11:49:35;100179.75;;;7.61;97.35
56928;BME280;60850;52.502;13.426;2023-03-11T11:52:05;100173.88;;;7.84;93.95
56928;BME280;60850;52.502;13.426;2023-03-11T11:54:38;100188.13;;;7.80;95.28
56928;BME280;60850;52.502;13.426;2023-03-11T11:57:10;100181.72;;;7.89;95.76
56928;BME280;60850;52.502;13.426;2023-03-11T11:59:38;100180.28;;;7.74;95.39
56928;BME280;60850;52.502;13.426;2023-03-11T12:02:17;100180.75;;;7.56;93.99
56928;BME280;60850;52.502;13.426;2023-03-11T12:04:53;100188.81;;;7.51;93.02
56928;BME280;60850;52.502;13.426;2023-03-11T12:07:31;100184.41;;;7.50;92.41
56928;BME280;60850;52.502;13.426;2023-03-11T12:10:14;100181.84;;;7.47;92.75
56928;BME280;60850;52.502;13.426;2023-03-11T12:12:48;100185.31;;;7.49;89.24
56928;BME280;60850;52.502;13.426;2023-03-11T12:15:25;100188.97;;;7.43;91.34
56928;BME280;60850;52.502;13.426;2023-03-11T12:17:56;100197.63;;;7.11;87.94
56928;BME280;60850;52.502;13.426;2023-03-11T12:20:27;100196.78;;;7.09;88.16
56928;BME280;60850;52.502;13.426;2023-03-11T12:23:15;100189.88;;;7.02;89.51
56928;BME280;60850;52.502;13.426;2023-03-11T12:25:57;100199.03;;;6.86;91.16
56928;BME280;60850;52.502;13.426;2023-03-11T12:28:37;100195.84;;;6.70;92.99
56928;BME280;60850;52.502;13.426;2023-03-11T12:31:08;100200.81;;;6.39;94.81
56928;BME280;60850;52.502;13.426;2023-03-11T12:33:39;100205.34;;;6.32;96.54
56928;BME280;60850;52.502;13.426;2023-03-11T12:36:20;100210.75;;;6.26;99.12
56928;BME280;60850;52.502;13.426;2023-03-11T12:38:48;100206.56;;;6.15;99.94
56928;BME280;60850;52.502;13.426;2023-03-11T12:41:35;100225.06;;;6.15;100.00
56928;BME280;60850;52.502;13.426;2023-03-11T12:44:22;100226.03;;;6.09;100.00
56928;BME280;60850;52.502;13.426;2023-03-11T12:47:01;100220.72;;;6.11;100.00
56928;BME280;60850;52.502;13.426;2023-03-11T12:49:29;100224.59;;;6.41;100.00
56928;BME280;60850;52.502;13.426;2023-03-11T12:52:03;100212.91;;;6.55;98.38
56928;BME280;60850;52.502;13.426;2023-03-11T12:54:32;100228.56;;;6.66;97.79
56928;BME280;60850;52.502;13.426;2023-03-11T12:57:04;100220.75;;;6.58;95.33
56928;BME280;60850;52.502;13.426;2023-03-11T12:59:59;100224.09;;;6.70;92.52
56928;BME280;60850;52.502;13.426;2023-03-11T13:02:54;100236.31;;;6.77;91.08
56928;BME280;60850;52.502;13.426;2023-03-11T13:05:27;100234.50;;;6.79;89.59